Terminal Aerodrome Forecast
Issued by NWS

Home | Current Version | Previous Version | Text Only | Print | Product List | Glossary On
Versions: 1 2 3 4 5 6 7 8 9 10 11 12 13 14 15 16
000
FTUS41 KGYX 031720
TAFRKD
TAF
KRKD 031720Z 0318/0418 27010KT P6SM BKN250
     FM032100 20009KT P6SM BKN080
     FM040200 20012G22KT 3SM -SN BR OVC015
      TEMPO 0404/0408 3/4SM -SN BR OVC006
     FM041000 23012G20KT 5SM -SHRA BR OVC015
     FM041200 23010G20KT P6SM SCT030 BKN100
      AMD LTD TO CLD VIS AND WIND=

USA.gov is the U.S. government's official web portal to all federal, state and local government web resources and services.